createdAt,value
2018-06-05T00:01:38.253Z,13.73
2018-06-05T00:04:14.066Z,16.73
2018-06-05T00:06:48.640Z,17.63
2018-06-05T00:09:18.831Z,17.50
2018-06-05T00:12:03.041Z,17.20
2018-06-05T00:14:33.281Z,16.30
2018-06-05T00:17:03.426Z,18.93
2018-06-05T00:19:33.552Z,15.97
2018-06-05T00:22:03.680Z,16.83
2018-06-05T00:24:33.757Z,17.70
2018-06-05T00:27:10.629Z,15.73
2018-06-05T00:29:40.748Z,17.40
2018-06-05T00:32:11.642Z,15.73
2018-06-05T00:34:42.729Z,15.23
2018-06-05T00:37:19.568Z,14.83
2018-06-05T00:39:49.709Z,15.17
2018-06-05T00:42:20.366Z,15.97
2018-06-05T00:44:55.681Z,17.47
2018-06-05T00:47:25.815Z,16.80
2018-06-05T00:49:59.516Z,16.40
2018-06-05T00:52:30.452Z,19.40
2018-06-05T00:55:12.318Z,15.87
2018-06-05T00:57:42.465Z,16.63
2018-06-05T01:00:12.634Z,15.20
2018-06-05T01:02:42.809Z,15.37
2018-06-05T01:05:15.997Z,18.50
2018-06-05T01:07:46.792Z,18.03
2018-06-05T01:10:20.190Z,17.53
2018-06-05T01:12:51.287Z,18.17
2018-06-05T01:15:24.500Z,18.80
2018-06-05T01:17:56.039Z,16.30
2018-06-05T01:20:28.533Z,16.10
2018-06-05T01:22:58.605Z,16.90
2018-06-05T01:25:31.204Z,16.60
2018-06-05T01:28:07.237Z,16.93
2018-06-05T01:30:37.432Z,19.10
2018-06-05T01:33:07.662Z,18.23
2018-06-05T01:35:38.967Z,18.43
2018-06-05T01:38:10.443Z,17.90
2018-06-05T01:40:41.480Z,16.43
2018-06-05T01:45:52.156Z,15.67
2018-06-05T01:48:22.312Z,19.77
2018-06-05T01:50:52.438Z,16.97
2018-06-05T01:53:25.062Z,17.00
2018-06-05T01:55:57.001Z,17.20
2018-06-05T01:58:29.252Z,17.50
2018-06-05T02:01:00.568Z,17.43
2018-06-05T02:03:32.583Z,16.23
2018-06-05T02:06:05.104Z,17.57
2018-06-05T02:08:41.392Z,15.07
2018-06-05T02:11:11.473Z,15.33
2018-06-05T02:13:41.552Z,16.30
2018-06-05T02:16:12.825Z,15.30
2018-06-05T02:18:46.544Z,15.33
2018-06-05T02:21:17.208Z,14.13
2018-06-05T02:23:47.959Z,16.40
2018-06-05T02:26:18.062Z,15.17
2018-06-05T02:28:49.917Z,16.40
2018-06-05T02:31:20.020Z,15.77
2018-06-05T02:33:56.029Z,14.27
2018-06-05T02:36:27.126Z,14.63
2018-06-05T02:38:57.869Z,13.97
2018-06-05T02:41:28.001Z,15.20
2018-06-05T02:43:58.463Z,13.13
2018-06-05T02:46:29.763Z,13.87
2018-06-05T02:49:00.804Z,13.43
2018-06-05T02:51:30.891Z,13.80
2018-06-05T02:54:02.163Z,12.47
2018-06-05T02:56:32.297Z,12.30
2018-06-05T02:59:02.547Z,12.60
2018-06-05T03:01:33.331Z,13.47
2018-06-05T03:04:05.290Z,13.47
2018-06-05T03:06:36.949Z,13.00
2018-06-05T03:09:07.325Z,12.90
2018-06-05T03:11:39.106Z,13.23
2018-06-05T03:14:09.334Z,12.90
2018-06-05T03:16:40.483Z,12.83
2018-06-05T03:19:12.651Z,14.80
2018-06-05T03:21:45.865Z,12.73
2018-06-05T03:24:16.804Z,13.20
2018-06-05T03:26:46.841Z,12.47
2018-06-05T03:29:21.128Z,13.23
2018-06-05T03:31:51.201Z,12.80
2018-06-05T03:34:21.386Z,13.27
2018-06-05T03:36:51.987Z,13.10
2018-06-05T03:39:25.398Z,13.13
2018-06-05T03:41:55.508Z,13.87
2018-06-05T03:44:25.592Z,13.50
2018-06-05T03:46:56.692Z,12.63
2018-06-05T03:49:26.853Z,12.77
2018-06-05T03:52:01.912Z,13.20
2018-06-05T03:54:34.866Z,11.97
2018-06-05T03:57:06.055Z,12.83
2018-06-05T03:59:36.282Z,12.77
2018-06-05T04:02:07.413Z,13.90
2018-06-05T04:04:40.200Z,15.33
2018-06-05T04:07:18.473Z,14.40
2018-06-05T04:09:50.280Z,15.20
2018-06-05T04:12:21.413Z,13.33
2018-06-05T04:14:51.894Z,14.33
2018-06-05T04:17:24.763Z,14.03
2018-06-05T04:19:56.265Z,14.43
2018-06-05T04:22:30.162Z,12.70
2018-06-05T04:25:01.542Z,13.50
2018-06-05T04:27:32.854Z,14.27
2018-06-05T04:30:03.358Z,14.90
2018-06-05T04:32:37.616Z,13.93
2018-06-05T04:35:08.853Z,13.93
2018-06-05T04:37:39.624Z,13.80
2018-06-05T04:40:10.629Z,13.00
2018-06-05T04:42:41.789Z,13.40
2018-06-05T04:45:15.663Z,12.73
2018-06-05T04:47:45.993Z,12.67
2018-06-05T04:50:19.385Z,14.23
2018-06-05T04:52:50.697Z,13.07
2018-06-05T04:55:21.753Z,13.30
2018-06-05T04:57:53.742Z,13.87
2018-06-05T05:00:24.077Z,13.03
2018-06-05T05:02:56.583Z,13.63
2018-06-05T05:05:28.255Z,15.93
2018-06-05T05:07:58.449Z,13.97
2018-06-05T05:10:38.049Z,13.33
2018-06-05T05:13:09.832Z,14.07
2018-06-05T05:15:41.050Z,12.93
2018-06-05T05:18:11.910Z,13.80
2018-06-05T05:20:44.377Z,15.00
2018-06-05T05:23:14.580Z,13.50
2018-06-05T05:25:45.686Z,13.60
2018-06-05T05:28:16.778Z,14.60
2018-06-05T05:30:48.617Z,13.60
2018-06-05T05:33:19.021Z,13.30
2018-06-05T05:35:54.775Z,13.40
2018-06-05T05:38:25.642Z,12.73
2018-06-05T05:40:56.754Z,14.43
2018-06-05T05:43:29.120Z,14.80
2018-06-05T05:46:00.162Z,13.83
2018-06-05T05:48:33.258Z,15.37
2018-06-05T05:51:04.937Z,14.50
2018-06-05T05:53:36.114Z,14.93
2018-06-05T05:56:07.215Z,14.30
2018-06-05T05:58:37.428Z,14.80
2018-06-05T06:01:08.585Z,13.77
2018-06-05T06:03:39.623Z,14.93
2018-06-05T06:06:10.715Z,14.87
2018-06-05T06:08:41.915Z,13.40
2018-06-05T06:11:12.306Z,16.27
2018-06-05T06:13:46.408Z,14.73
2018-06-05T06:16:16.657Z,14.10
2018-06-05T06:18:46.907Z,13.57
2018-06-05T06:21:18.444Z,13.17
2018-06-05T06:23:52.365Z,14.20
2018-06-05T06:26:23.489Z,13.43
2018-06-05T06:28:57.552Z,13.53
2018-06-05T06:31:29.404Z,14.80
2018-06-05T06:34:00.885Z,15.10
2018-06-05T06:36:31.341Z,15.70
2018-06-05T06:39:01.529Z,15.10
2018-06-05T06:41:32.417Z,16.60
2018-06-05T06:44:04.584Z,16.80
2018-06-05T06:46:35.591Z,15.73
2018-06-05T06:49:06.969Z,16.60
2018-06-05T06:51:37.243Z,16.80
2018-06-05T06:54:08.020Z,15.17
2018-06-05T06:56:39.264Z,16.60
2018-06-05T06:59:10.975Z,14.40
2018-06-05T07:01:41.773Z,13.60
2018-06-05T07:04:15.028Z,16.20
2018-06-05T07:06:47.210Z,12.57
2018-06-05T07:09:17.408Z,14.93
2018-06-05T07:11:48.265Z,15.20
2018-06-05T07:14:18.472Z,14.63
2018-06-05T07:16:49.518Z,14.60
2018-06-05T07:19:20.694Z,15.30
2018-06-05T07:21:51.481Z,16.97
2018-06-05T07:24:21.879Z,15.07
2018-06-05T07:26:52.438Z,15.20
2018-06-05T07:29:23.612Z,14.50
2018-06-05T07:31:53.319Z,14.37
2018-06-05T07:34:30.717Z,14.90
2018-06-05T07:37:00.945Z,15.17
2018-06-05T07:39:32.877Z,16.00
2018-06-05T07:42:03.991Z,14.90
2018-06-05T07:44:36.828Z,14.50
2018-06-05T07:47:08.529Z,13.90
2018-06-05T07:49:38.698Z,13.60
2018-06-05T07:52:12.886Z,13.80
2018-06-05T07:54:44.386Z,12.33
2018-06-05T07:57:14.091Z,12.90
2018-06-05T07:59:48.010Z,15.77
2018-06-05T08:02:18.233Z,14.40
2018-06-05T08:04:48.389Z,12.90
2018-06-05T08:07:18.930Z,15.33
2018-06-05T08:09:49.086Z,15.53
2018-06-05T08:12:20.164Z,14.23
2018-06-05T08:14:51.614Z,14.77
2018-06-05T08:17:24.349Z,15.40
2018-06-05T08:19:55.308Z,14.23
2018-06-05T08:22:31.799Z,15.30
2018-06-05T08:25:02.050Z,15.70
2018-06-05T08:27:33.711Z,14.77
2018-06-05T08:30:06.493Z,17.27
2018-06-05T08:32:36.735Z,15.30
2018-06-05T08:35:08.425Z,16.00
2018-06-05T08:37:40.045Z,16.97
2018-06-05T08:40:11.154Z,16.53
2018-06-05T08:42:41.437Z,15.23
2018-06-05T08:45:12.449Z,15.47
2018-06-05T08:47:42.909Z,13.93
2018-06-05T08:50:15.327Z,14.60
2018-06-05T08:52:47.352Z,12.93
2018-06-05T08:55:19.875Z,12.60
2018-06-05T08:57:50.029Z,13.07
2018-06-05T09:00:20.261Z,13.47
2018-06-05T09:02:50.527Z,12.03
2018-06-05T09:05:21.138Z,13.53
2018-06-05T09:07:51.572Z,12.30
2018-06-05T09:10:21.794Z,11.43
2018-06-05T09:12:52.028Z,12.80
2018-06-05T09:15:23.063Z,11.60
2018-06-05T09:17:53.080Z,12.63
2018-06-05T09:20:23.400Z,11.37
2018-06-05T09:22:53.618Z,12.33
2018-06-05T09:25:23.871Z,12.67
2018-06-05T09:27:54.145Z,12.33
2018-06-05T09:30:24.283Z,13.23
2018-06-05T09:32:55.939Z,12.20
2018-06-05T09:35:26.133Z,12.13
2018-06-05T09:37:56.466Z,11.20
2018-06-05T09:40:26.971Z,12.83
2018-06-05T09:43:02.712Z,12.50
2018-06-05T09:45:32.953Z,11.73
2018-06-05T09:48:03.246Z,12.33
2018-06-05T09:50:33.544Z,12.97
2018-06-05T09:53:03.745Z,11.10
2018-06-05T09:55:34.093Z,13.43
2018-06-05T09:58:10.131Z,12.10
2018-06-05T10:00:46.489Z,11.63
2018-06-05T10:03:16.801Z,11.33
2018-06-05T10:05:49.665Z,12.87
2018-06-05T10:08:19.837Z,12.10
2018-06-05T10:10:50.010Z,12.50
2018-06-05T10:13:21.969Z,10.80
2018-06-05T10:15:52.492Z,11.40
2018-06-05T10:18:22.941Z,12.07
2018-06-05T10:20:53.473Z,12.70
2018-06-05T10:23:23.731Z,13.30
2018-06-05T10:25:53.463Z,12.10
2018-06-05T10:28:31.016Z,13.40
2018-06-05T10:31:01.224Z,13.50
2018-06-05T10:33:31.526Z,12.40
2018-06-05T10:36:01.722Z,12.03
2018-06-05T10:38:32.042Z,13.10
2018-06-05T10:41:02.352Z,11.53
2018-06-05T10:43:32.589Z,11.67
2018-06-05T10:46:03.403Z,11.93
2018-06-05T10:48:33.602Z,11.70
2018-06-05T10:51:04.818Z,12.00
2018-06-05T10:53:35.157Z,13.67
2018-06-05T10:56:05.394Z,12.20
2018-06-05T10:58:35.836Z,11.07
2018-06-05T11:01:18.670Z,11.80
2018-06-05T11:03:48.845Z,11.40
2018-06-05T11:06:19.351Z,12.37
2018-06-05T11:08:49.590Z,10.87
2018-06-05T11:11:21.691Z,11.87
2018-06-05T11:13:51.967Z,12.27
2018-06-05T11:16:22.258Z,10.73
2018-06-05T11:18:52.872Z,11.70
2018-06-05T11:21:23.252Z,12.33
2018-06-05T11:23:53.500Z,12.20
2018-06-05T11:26:23.757Z,11.87
2018-06-05T11:28:58.476Z,10.87
2018-06-05T11:31:28.676Z,10.80
2018-06-05T11:33:58.963Z,11.03
2018-06-05T11:36:29.232Z,10.70
2018-06-05T11:38:59.507Z,10.50
2018-06-05T11:41:33.449Z,12.00
2018-06-05T11:44:03.836Z,12.13
2018-06-05T11:46:34.141Z,12.30
2018-06-05T11:49:04.433Z,11.70
2018-06-05T11:51:34.637Z,11.87
2018-06-05T11:54:04.959Z,11.80
2018-06-05T11:56:36.697Z,10.60
2018-06-05T11:59:07.007Z,11.90
2018-06-05T12:01:37.331Z,12.37
2018-06-05T12:04:07.649Z,12.00
2018-06-05T12:06:38.351Z,11.70
2018-06-05T12:09:09.000Z,10.67
2018-06-05T12:11:39.429Z,10.77
2018-06-05T12:14:09.689Z,10.93
2018-06-05T12:16:39.751Z,12.50
2018-06-05T12:19:09.847Z,12.17
2018-06-05T12:21:40.259Z,10.20
2018-06-05T12:24:10.653Z,9.93
2018-06-05T12:26:41.770Z,11.10
2018-06-05T12:29:14.652Z,10.57
2018-06-05T12:31:45.947Z,9.57
2018-06-05T12:34:18.293Z,10.33
2018-06-05T12:36:49.529Z,10.93
2018-06-05T12:39:20.935Z,12.27
2018-06-05T12:41:51.744Z,10.20
2018-06-05T12:44:22.735Z,10.17
2018-06-05T12:46:56.025Z,10.67
2018-06-05T12:49:30.160Z,12.10
2018-06-05T12:52:01.040Z,12.23
2018-06-05T12:54:32.344Z,10.20
2018-06-05T12:57:04.089Z,10.13
2018-06-05T12:59:35.163Z,12.27
2018-06-05T13:02:06.243Z,11.60
2018-06-05T13:04:37.063Z,10.57
2018-06-05T13:07:07.850Z,9.60
2018-06-05T13:09:39.164Z,10.33
2018-06-05T13:12:10.252Z,10.67
2018-06-05T13:14:41.414Z,11.00
2018-06-05T13:17:12.166Z,12.07
2018-06-05T13:19:49.404Z,11.83
2018-06-05T13:22:20.368Z,12.40
2018-06-05T13:24:51.089Z,12.33
2018-06-05T13:27:21.709Z,10.57
2018-06-05T13:29:55.085Z,12.10
2018-06-05T13:32:25.422Z,11.73
2018-06-05T13:34:55.615Z,10.40
2018-06-05T13:37:25.877Z,10.70
2018-06-05T13:39:56.227Z,11.43
2018-06-05T13:42:26.444Z,11.53
2018-06-05T13:45:03.161Z,11.97
2018-06-05T13:47:33.385Z,10.77
2018-06-05T13:50:03.690Z,10.90
2018-06-05T13:52:33.857Z,9.47
2018-06-05T13:55:04.206Z,11.60
2018-06-05T13:57:40.277Z,9.90
2018-06-05T14:00:10.525Z,9.70
2018-06-05T14:02:40.801Z,11.10
2018-06-05T14:05:11.024Z,11.60
2018-06-05T14:07:41.249Z,11.30
2018-06-05T14:10:11.622Z,10.67
2018-06-05T14:12:42.706Z,11.10
2018-06-05T14:15:13.449Z,8.20
2018-06-05T14:17:45.237Z,9.60
2018-06-05T14:20:16.221Z,8.03
2018-06-05T14:25:34.697Z,9.83
2018-06-05T14:28:06.380Z,11.07
2018-06-05T14:30:40.533Z,10.70
2018-06-05T14:33:16.314Z,8.30
2018-06-05T14:35:47.041Z,9.13
2018-06-05T14:38:21.414Z,10.17
2018-06-05T14:40:52.466Z,10.47
2018-06-05T14:43:23.274Z,9.10
2018-06-05T14:49:11.632Z,9.30
2018-06-05T14:51:42.996Z,8.80
2018-06-05T14:54:13.261Z,9.10
2018-06-05T14:56:43.485Z,7.80
2018-06-05T14:59:15.788Z,9.47
2018-06-05T15:01:46.065Z,10.13
2018-06-05T15:04:16.243Z,8.80
2018-06-05T15:06:46.469Z,8.73
2018-06-05T15:09:16.797Z,9.37
2018-06-05T15:11:46.982Z,9.10
2018-06-05T15:14:17.180Z,8.37
2018-06-05T15:16:53.665Z,9.10
2018-06-05T15:31:29.016Z,9.00
2018-06-05T15:40:30.641Z,10.30
2018-06-05T15:43:02.589Z,9.63
2018-06-05T15:45:33.785Z,9.10
2018-06-05T15:48:05.557Z,9.50
2018-06-05T15:50:35.693Z,10.10
2018-06-05T15:53:06.070Z,10.13
2018-06-05T15:55:36.478Z,10.80
2018-06-05T15:58:06.674Z,9.60
2018-06-05T16:00:37.058Z,10.60
2018-06-05T16:03:07.233Z,9.93
2018-06-05T16:05:42.509Z,9.87
2018-06-05T16:08:12.821Z,9.17
2018-06-05T16:10:42.432Z,10.33
2018-06-05T16:13:12.489Z,11.40
2018-06-05T16:15:43.063Z,9.70
2018-06-05T16:18:13.395Z,12.50
2018-06-05T16:20:43.886Z,12.20
2018-06-05T16:23:14.195Z,11.30
2018-06-05T16:25:44.457Z,11.70
2018-06-05T16:28:14.682Z,10.80
2018-06-05T16:30:44.969Z,11.50
2018-06-05T16:33:16.616Z,11.90
2018-06-05T16:35:47.081Z,12.13
2018-06-05T16:38:17.310Z,12.37
2018-06-05T16:40:51.665Z,10.73
2018-06-05T16:43:21.811Z,10.90
2018-06-05T16:45:52.750Z,13.60
2018-06-05T16:48:22.921Z,10.13
2018-06-05T16:50:53.109Z,10.80
2018-06-05T16:53:23.608Z,12.50
2018-06-05T16:55:53.835Z,11.20
2018-06-05T16:58:24.089Z,12.00
2018-06-05T17:00:54.280Z,12.60
2018-06-05T17:03:25.922Z,10.10
2018-06-05T17:05:56.182Z,12.00
2018-06-05T17:08:26.457Z,13.07
2018-06-05T17:10:56.649Z,10.43
2018-06-05T17:13:26.808Z,12.20
2018-06-05T17:15:56.960Z,12.93
2018-06-05T17:18:27.564Z,13.40
2018-06-05T17:20:57.801Z,14.23
2018-06-05T17:23:27.973Z,12.53
2018-06-05T17:25:58.318Z,14.93
2018-06-05T17:28:28.462Z,13.80
2018-06-05T17:30:58.690Z,15.30
2018-06-05T17:33:29.466Z,12.37
2018-06-05T17:35:59.682Z,12.40
2018-06-05T17:38:30.006Z,13.67
2018-06-05T17:41:01.873Z,13.97
2018-06-05T17:43:35.137Z,13.37
2018-06-05T17:46:06.878Z,12.93
2018-06-05T17:48:37.333Z,13.10
2018-06-05T17:51:10.154Z,13.93
2018-06-05T17:53:40.293Z,15.70
2018-06-05T17:56:10.524Z,13.90
2018-06-05T17:58:40.712Z,13.70
2018-06-05T18:01:11.129Z,13.00
2018-06-05T18:03:41.375Z,14.40
2018-06-05T18:06:11.646Z,13.40
2018-06-05T18:08:42.101Z,13.70
2018-06-05T18:11:34.062Z,14.87
2018-06-05T18:14:04.437Z,13.33
2018-06-05T18:16:34.774Z,14.20
2018-06-05T18:19:05.011Z,15.00
2018-06-05T18:21:35.514Z,13.10
2018-06-05T18:24:05.765Z,13.40
2018-06-05T18:26:36.070Z,13.37
2018-06-05T18:29:06.369Z,10.87
2018-06-05T18:31:44.593Z,11.50
2018-06-05T18:34:14.901Z,13.80
2018-06-05T18:36:45.125Z,13.90
2018-06-05T18:39:15.304Z,12.03
2018-06-05T18:41:45.508Z,11.93
2018-06-05T18:44:15.759Z,11.73
2018-06-05T18:46:46.015Z,10.20
2018-06-05T18:49:18.730Z,11.93
2018-06-05T18:51:48.921Z,12.67
2018-06-05T18:54:19.053Z,14.00
2018-06-05T18:59:13.224Z,13.53
2018-06-05T19:01:43.949Z,11.20
2018-06-05T19:04:14.890Z,11.50
2018-06-05T19:06:45.646Z,13.57
2018-06-05T19:09:18.587Z,13.77
2018-06-05T19:11:49.363Z,14.20
2018-06-05T19:14:19.890Z,15.83
2018-06-05T19:16:51.260Z,14.50
2018-06-05T19:19:23.218Z,15.03
2018-06-05T19:21:53.783Z,15.53
2018-06-05T19:24:24.795Z,15.90
2018-06-05T19:26:55.836Z,14.97
2018-06-05T19:29:26.492Z,14.60
2018-06-05T19:31:56.981Z,15.47
2018-06-05T19:34:27.818Z,12.40
2018-06-05T19:36:58.507Z,13.27
2018-06-05T19:39:29.505Z,13.67
2018-06-05T19:41:59.486Z,14.10
2018-06-05T19:44:30.047Z,11.80
2018-06-05T19:47:00.907Z,11.93
2018-06-05T19:49:32.245Z,10.87
2018-06-05T19:52:04.317Z,12.27
2018-06-05T19:54:35.054Z,13.90
2018-06-05T19:57:05.814Z,13.50
2018-06-05T19:59:36.717Z,12.37
2018-06-05T20:02:07.694Z,12.83
2018-06-05T20:04:39.115Z,11.90
2018-06-05T20:07:10.004Z,14.60
2018-06-05T20:09:40.796Z,12.37
2018-06-05T20:12:12.247Z,12.70
2018-06-05T20:14:43.153Z,12.90
2018-06-05T20:17:13.655Z,12.60
2018-06-05T20:19:44.805Z,12.03
2018-06-05T20:22:15.859Z,12.17
2018-06-05T20:24:46.357Z,12.20
2018-06-05T20:27:17.121Z,12.13
2018-06-05T20:29:48.052Z,13.07
2018-06-05T20:32:19.293Z,11.60
2018-06-05T20:34:50.116Z,11.73
2018-06-05T20:37:20.756Z,12.33
2018-06-05T20:39:52.034Z,12.33
2018-06-05T20:42:22.794Z,13.90
2018-06-05T20:44:52.922Z,12.10
2018-06-05T20:47:23.714Z,11.30
2018-06-05T20:49:54.427Z,12.67
2018-06-05T20:52:25.069Z,13.57
2018-06-05T20:54:55.592Z,14.00
2018-06-05T20:57:26.097Z,14.20
2018-06-05T20:59:56.248Z,11.83
2018-06-05T21:02:26.724Z,14.70
2018-06-05T21:04:58.824Z,11.53
2018-06-05T21:07:29.394Z,14.23
2018-06-05T21:10:00.347Z,13.60
2018-06-05T21:12:31.326Z,11.30
2018-06-05T21:15:02.019Z,13.10
2018-06-05T21:17:32.617Z,13.70
2018-06-05T21:20:03.324Z,14.07
2018-06-05T21:22:34.186Z,13.50
2018-06-05T21:25:04.790Z,15.73
2018-06-05T21:27:35.187Z,13.47
2018-06-05T21:30:06.143Z,13.63
2018-06-05T21:32:37.003Z,13.37
2018-06-05T21:35:08.155Z,13.90
2018-06-05T21:37:38.635Z,12.77
2018-06-05T21:40:09.186Z,12.53
2018-06-05T21:42:39.312Z,14.30
2018-06-05T21:45:09.841Z,13.60
2018-06-05T21:47:40.291Z,14.30
2018-06-05T21:50:10.459Z,12.87
2018-06-05T21:52:40.974Z,12.37
2018-06-05T21:55:11.805Z,12.10
2018-06-05T21:57:42.821Z,15.03
2018-06-05T22:00:13.394Z,13.37
2018-06-05T22:02:43.874Z,14.53
2018-06-05T22:05:14.591Z,15.73
2018-06-05T22:07:45.559Z,15.83
2018-06-05T22:10:16.286Z,14.50
2018-06-05T22:12:46.930Z,14.47
2018-06-05T22:15:17.764Z,13.60
2018-06-05T22:17:48.868Z,14.50
2018-06-05T22:20:19.491Z,12.97
2018-06-05T22:22:50.585Z,11.57
2018-06-05T22:25:21.166Z,11.70
2018-06-05T22:27:51.605Z,12.20
2018-06-05T22:30:22.348Z,12.47
2018-06-05T22:32:53.222Z,10.83
2018-06-05T22:35:23.547Z,10.80
2018-06-05T22:37:54.237Z,10.70
2018-06-05T22:40:24.576Z,10.23
2018-06-05T22:42:55.445Z,12.07
2018-06-05T22:45:25.933Z,10.17
2018-06-05T22:47:56.579Z,10.90
2018-06-05T22:50:26.616Z,10.30
2018-06-05T22:52:57.318Z,10.60
2018-06-05T22:55:27.939Z,9.40
2018-06-05T22:58:01.194Z,11.10
2018-06-05T23:00:34.952Z,9.60
2018-06-05T23:03:05.622Z,10.10
2018-06-05T23:05:38.461Z,9.17
2018-06-05T23:08:09.013Z,9.57
2018-06-05T23:10:39.567Z,9.73
2018-06-05T23:13:09.855Z,8.63
2018-06-05T23:15:42.303Z,10.03
2018-06-05T23:18:12.823Z,9.83
2018-06-05T23:20:43.358Z,8.67
2018-06-05T23:23:14.413Z,9.30
2018-06-05T23:25:44.777Z,10.13
2018-06-05T23:28:14.595Z,8.27
2018-06-05T23:30:45.087Z,8.77
2018-06-05T23:33:16.213Z,8.83
2018-06-05T23:35:46.582Z,9.60
2018-06-05T23:38:17.050Z,9.03
2018-06-05T23:40:47.443Z,8.47
2018-06-05T23:43:17.845Z,8.87
2018-06-05T23:45:48.507Z,9.00
2018-06-05T23:48:19.538Z,9.83
2018-06-05T23:50:50.044Z,9.53
2018-06-05T23:53:20.534Z,9.13
2018-06-05T23:55:51.186Z,9.90
2018-06-05T23:58:22.134Z,9.63
